createdAt,value
2018-04-25T00:00:16.617Z,34.33
2018-04-25T00:02:44.856Z,34.53
2018-04-25T00:05:13.877Z,33.53
2018-04-25T00:07:42.103Z,34.73
2018-04-25T00:10:10.347Z,34.73
2018-04-25T00:12:38.972Z,33.77
2018-04-25T00:15:07.195Z,33.20
2018-04-25T00:17:35.425Z,33.50
2018-04-25T00:20:04.452Z,33.67
2018-04-25T00:22:32.687Z,34.27
2018-04-25T00:25:01.699Z,33.10
2018-04-25T00:27:30.700Z,33.30
2018-04-25T00:29:58.960Z,33.00
2018-04-25T00:32:27.965Z,32.33
2018-04-25T00:34:56.214Z,31.00
2018-04-25T00:37:25.210Z,31.03
2018-04-25T00:39:54.235Z,29.63
2018-04-25T00:42:22.515Z,28.70
2018-04-25T00:44:50.770Z,28.13
2018-04-25T00:47:19.007Z,27.03
2018-04-25T00:49:47.255Z,25.93
2018-04-25T00:52:15.487Z,26.37
2018-04-25T00:54:43.742Z,26.80
2018-04-25T00:57:12.869Z,25.37
2018-04-25T00:59:41.048Z,24.93
2018-04-25T01:02:09.283Z,24.93
2018-04-25T01:04:38.294Z,26.33
2018-04-25T01:07:06.533Z,25.00
2018-04-25T01:09:34.778Z,26.70
2018-04-25T01:12:03.800Z,25.67
2018-04-25T01:14:32.023Z,24.87
2018-04-25T01:17:00.258Z,25.83
2018-04-25T01:19:29.272Z,25.33
2018-04-25T01:21:57.521Z,26.17
2018-04-25T01:24:25.768Z,25.10
2018-04-25T01:26:53.998Z,25.53
2018-04-25T01:29:23.156Z,25.53
2018-04-25T01:31:53.286Z,25.77
2018-04-25T01:34:42.062Z,25.87
2018-04-25T01:37:33.146Z,26.93
2018-04-25T01:40:01.366Z,25.70
2018-04-25T01:42:29.603Z,26.93
2018-04-25T01:44:59.274Z,25.93
2018-04-25T01:47:28.914Z,26.80
2018-04-25T01:53:09.276Z,27.73
2018-04-25T01:55:55.580Z,26.50
2018-04-25T01:58:41.700Z,26.83
2018-04-25T02:01:19.394Z,27.10
2018-04-25T02:03:48.302Z,27.60
2018-04-25T02:06:17.074Z,26.93
2018-04-25T02:08:45.315Z,26.37
2018-04-25T02:11:13.570Z,25.00
2018-04-25T02:13:41.809Z,25.30
2018-04-25T02:16:10.063Z,24.83
2018-04-25T02:18:38.302Z,25.00
2018-04-25T02:21:06.544Z,24.13
2018-04-25T02:23:34.784Z,24.03
2018-04-25T02:26:03.804Z,23.63
2018-04-25T02:28:32.042Z,22.80
2018-04-25T02:31:01.047Z,21.97
2018-04-25T02:33:29.299Z,22.27
2018-04-25T02:35:58.302Z,21.53
2018-04-25T02:38:27.315Z,21.33
2018-04-25T02:40:55.559Z,21.07
2018-04-25T02:43:24.583Z,20.70
2018-04-25T02:45:52.818Z,19.80
2018-04-25T02:48:21.843Z,18.77
2018-04-25T02:50:50.077Z,19.70
2018-04-25T02:53:18.322Z,18.03
2018-04-25T02:55:46.564Z,19.27
2018-04-25T02:58:14.816Z,17.03
2018-04-25T03:00:43.823Z,18.57
2018-04-25T03:03:12.071Z,18.47
2018-04-25T03:05:41.076Z,17.53
2018-04-25T03:08:10.095Z,17.40
2018-04-25T03:10:38.331Z,16.67
2018-04-25T03:13:07.355Z,16.63
2018-04-25T03:15:35.588Z,17.10
2018-04-25T03:18:03.835Z,17.20
2018-04-25T03:20:32.067Z,16.13
2018-04-25T03:23:00.318Z,16.10
2018-04-25T03:25:29.322Z,16.50
2018-04-25T03:27:58.343Z,15.90
2018-04-25T03:30:26.634Z,14.83
2018-04-25T03:32:54.943Z,15.03
2018-04-25T03:35:23.171Z,14.53
2018-04-25T03:37:51.436Z,14.63
2018-04-25T03:40:19.675Z,14.30
2018-04-25T03:42:48.687Z,14.23
2018-04-25T03:45:16.939Z,14.90
2018-04-25T03:47:45.942Z,14.57
2018-04-25T03:50:15.324Z,15.23
2018-04-25T03:52:43.531Z,15.00
2018-04-25T03:55:11.777Z,14.23
2018-04-25T03:57:40.779Z,14.30
2018-04-25T04:00:09.790Z,14.57
2018-04-25T04:02:38.026Z,14.13
2018-04-25T04:05:06.274Z,14.73
2018-04-25T04:07:34.502Z,14.70
2018-04-25T04:10:02.764Z,14.33
2018-04-25T04:12:31.771Z,13.77
2018-04-25T04:15:00.033Z,13.30
2018-04-25T04:17:29.023Z,14.33
2018-04-25T04:19:58.037Z,15.20
2018-04-25T04:22:26.285Z,14.70
2018-04-25T04:24:55.320Z,14.40
2018-04-25T04:27:23.543Z,14.47
2018-04-25T04:29:52.602Z,13.93
2018-04-25T04:32:20.840Z,14.47
2018-04-25T04:34:49.096Z,14.43
2018-04-25T04:37:18.103Z,14.17
2018-04-25T04:39:46.356Z,13.90
2018-04-25T04:42:15.359Z,14.17
2018-04-25T04:44:44.378Z,13.63
2018-04-25T04:47:12.611Z,13.17
2018-04-25T04:49:41.623Z,13.40
2018-04-25T04:52:09.866Z,14.23
2018-04-25T04:54:38.109Z,13.50
2018-04-25T04:57:07.111Z,14.13
2018-04-25T04:59:35.419Z,12.80
2018-04-25T05:02:03.612Z,13.70
2018-04-25T05:04:31.852Z,13.73
2018-04-25T05:07:00.106Z,13.37
2018-04-25T05:09:28.342Z,13.40
2018-04-25T05:11:56.588Z,11.77
2018-04-25T05:14:25.586Z,11.80
2018-04-25T05:16:54.606Z,12.87
2018-04-25T05:19:22.845Z,11.63
2018-04-25T05:21:51.865Z,11.33
2018-04-25T05:24:20.141Z,11.23
2018-04-25T05:26:49.127Z,10.93
2018-04-25T05:29:17.364Z,10.90
2018-04-25T05:31:45.617Z,11.13
2018-04-25T05:34:13.858Z,10.93
2018-04-25T05:36:42.110Z,10.80
2018-04-25T05:39:10.346Z,10.50
2018-04-25T05:41:38.596Z,9.33
2018-04-25T05:44:06.828Z,9.63
2018-04-25T05:46:35.844Z,10.30
2018-04-25T05:49:04.078Z,9.43
2018-04-25T05:51:33.403Z,9.43
2018-04-25T05:54:01.635Z,9.60
2018-04-25T05:56:29.884Z,9.57
2018-04-25T05:58:58.115Z,9.53
2018-04-25T06:01:27.135Z,9.50
2018-04-25T06:03:55.371Z,9.80
2018-04-25T06:06:24.379Z,9.73
2018-04-25T06:08:52.627Z,10.07
2018-04-25T06:11:21.645Z,9.90
2018-04-25T06:13:49.891Z,10.00
2018-04-25T06:16:18.127Z,9.53
2018-04-25T06:18:46.367Z,8.80
2018-04-25T06:21:14.596Z,7.83
2018-04-25T06:23:42.840Z,7.33
2018-04-25T06:26:11.053Z,5.70
2018-04-25T06:28:39.292Z,5.90
2018-04-25T06:31:07.523Z,6.63
2018-04-25T06:33:36.531Z,6.63
2018-04-25T06:36:04.755Z,6.70
2018-04-25T06:38:32.991Z,6.47
2018-04-25T06:41:01.224Z,7.20
2018-04-25T06:43:29.462Z,7.80
2018-04-25T06:45:57.694Z,7.60
2018-04-25T06:48:26.703Z,6.70
2018-04-25T06:50:54.930Z,6.37
2018-04-25T06:53:23.162Z,5.77
2018-04-25T06:55:51.396Z,5.67
2018-04-25T06:58:20.396Z,4.77
2018-04-25T07:00:48.630Z,5.20
2018-04-25T07:03:16.871Z,4.70
2018-04-25T07:05:45.099Z,4.33
2018-04-25T07:08:14.142Z,3.87
2018-04-25T07:10:43.103Z,4.40
2018-04-25T07:13:11.349Z,4.37
2018-04-25T07:15:39.927Z,4.30
2018-04-25T07:18:08.142Z,5.13
2018-04-25T07:20:36.373Z,4.40
2018-04-25T07:23:04.593Z,4.30
2018-04-25T07:25:32.831Z,3.90
2018-04-25T07:28:01.827Z,3.93
2018-04-25T07:30:30.833Z,3.60
2018-04-25T07:32:59.062Z,3.33
2018-04-25T07:35:27.360Z,3.20
2018-04-25T07:37:55.530Z,2.63
2018-04-25T07:40:23.770Z,2.60
2018-04-25T07:42:52.006Z,2.50
2018-04-25T07:45:20.245Z,2.40
2018-04-25T07:47:48.479Z,2.60
2018-04-25T07:50:16.714Z,2.30
2018-04-25T07:52:45.719Z,2.30
2018-04-25T07:55:13.952Z,2.43
2018-04-25T07:57:42.259Z,2.20
2018-04-25T08:00:10.419Z,2.00
2018-04-25T08:02:39.408Z,2.13
2018-04-25T08:05:08.425Z,2.03
2018-04-25T08:07:36.674Z,2.00
2018-04-25T08:10:05.683Z,2.20
2018-04-25T08:12:45.901Z,2.43
2018-04-25T08:15:26.018Z,2.33
2018-04-25T08:18:06.206Z,2.37
2018-04-25T08:20:49.195Z,2.03
2018-04-25T08:23:17.423Z,2.50
2018-04-25T08:25:46.435Z,2.50
2018-04-25T08:28:14.654Z,2.70
2018-04-25T08:30:43.663Z,2.80
2018-04-25T08:33:11.888Z,3.20
2018-04-25T08:35:40.131Z,3.23
2018-04-25T08:38:09.114Z,3.50
2018-04-25T08:40:38.101Z,4.07
2018-04-25T08:43:07.107Z,4.23
2018-04-25T08:45:36.190Z,4.40
2018-04-25T08:48:05.207Z,4.53
2018-04-25T08:50:33.430Z,4.80
2018-04-25T08:53:01.665Z,4.70
2018-04-25T08:55:30.404Z,4.30
2018-04-25T08:57:58.619Z,4.00
2018-04-25T09:00:26.850Z,4.17
2018-04-25T09:02:55.079Z,3.87
2018-04-25T09:05:23.304Z,2.60
2018-04-25T09:07:52.310Z,2.73
2018-04-25T09:10:21.314Z,2.80
2018-04-25T09:12:49.560Z,2.73
2018-04-25T09:15:17.783Z,2.40
2018-04-25T09:17:46.029Z,2.60
2018-04-25T09:20:14.291Z,3.03
2018-04-25T09:22:42.490Z,2.20
2018-04-25T09:25:10.721Z,2.20
2018-04-25T09:27:38.962Z,2.30
2018-04-25T09:30:07.184Z,1.80
2018-04-25T09:32:36.187Z,1.70
2018-04-25T09:35:05.179Z,1.30
2018-04-25T09:37:33.430Z,1.30
2018-04-25T09:40:01.661Z,1.30
2018-04-25T09:42:29.914Z,1.10
2018-04-25T09:44:58.141Z,1.30
2018-04-25T09:47:26.729Z,1.50
2018-04-25T09:49:54.931Z,1.20
2018-04-25T09:52:23.943Z,1.53
2018-04-25T09:54:52.174Z,1.40
2018-04-25T09:57:20.410Z,1.30
2018-04-25T09:59:48.640Z,1.43
2018-04-25T10:02:23.238Z,1.30
2018-04-25T10:04:51.474Z,1.50
2018-04-25T10:07:19.710Z,1.27
2018-04-25T10:09:48.698Z,1.50
2018-04-25T10:12:18.180Z,1.73
2018-04-25T10:14:46.370Z,1.63
2018-04-25T10:17:15.450Z,1.50
2018-04-25T10:19:43.594Z,1.73
2018-04-25T10:22:11.823Z,1.50
2018-04-25T10:24:40.065Z,1.63
2018-04-25T10:27:08.284Z,1.80
2018-04-25T10:29:36.538Z,1.90
2018-04-25T10:32:05.530Z,1.80
2018-04-25T10:34:33.743Z,1.43
2018-04-25T10:37:01.966Z,1.60
2018-04-25T10:39:30.968Z,1.70
2018-04-25T10:41:59.958Z,1.80
2018-04-25T10:44:28.967Z,1.53
2018-04-25T10:46:57.200Z,1.30
2018-04-25T10:49:25.436Z,1.30
2018-04-25T10:51:53.659Z,1.20
2018-04-25T10:54:22.664Z,1.10
2018-04-25T10:56:50.903Z,1.20
2018-04-25T10:59:19.134Z,1.10
2018-04-25T11:01:47.365Z,1.20
2018-04-25T11:04:15.598Z,1.00
2018-04-25T11:06:43.831Z,1.27
2018-04-25T11:09:12.834Z,1.23
2018-04-25T11:11:41.054Z,1.10
2018-04-25T11:14:09.295Z,1.00
2018-04-25T11:16:37.512Z,1.07
2018-04-25T11:19:05.744Z,1.00
2018-04-25T11:21:33.973Z,1.27
2018-04-25T11:24:02.979Z,1.40
2018-04-25T11:26:32.042Z,1.20
2018-04-25T11:29:00.975Z,1.07
2018-04-25T11:31:29.197Z,1.20
2018-04-25T11:33:57.447Z,1.30
2018-04-25T11:36:25.671Z,1.20
2018-04-25T11:38:54.675Z,1.03
2018-04-25T11:41:22.903Z,1.30
2018-04-25T11:43:51.139Z,1.20
2018-04-25T11:46:19.370Z,1.20
2018-04-25T11:48:47.610Z,1.50
2018-04-25T11:51:15.830Z,1.20
2018-04-25T11:53:44.839Z,1.30
2018-04-25T11:56:13.147Z,1.30
2018-04-25T11:58:41.383Z,1.50
2018-04-25T12:01:10.675Z,1.33
2018-04-25T12:03:39.821Z,1.40
2018-04-25T12:06:08.970Z,1.50
2018-04-25T12:08:37.980Z,1.57
2018-04-25T12:11:06.253Z,1.47
2018-04-25T12:13:34.446Z,1.37
2018-04-25T12:16:02.675Z,1.80
2018-04-25T12:18:31.681Z,1.30
2018-04-25T12:20:59.931Z,1.40
2018-04-25T12:23:28.159Z,1.30
2018-04-25T12:25:56.399Z,1.33
2018-04-25T12:28:24.626Z,1.43
2018-04-25T12:30:52.871Z,1.73
2018-04-25T12:33:21.102Z,1.50
2018-04-25T12:35:50.192Z,1.67
2018-04-25T12:38:18.343Z,1.73
2018-04-25T12:40:46.582Z,1.80
2018-04-25T12:43:14.828Z,1.60
2018-04-25T12:45:43.086Z,1.53
2018-04-25T12:48:12.083Z,1.50
2018-04-25T12:50:41.087Z,1.57
2018-04-25T12:53:10.074Z,1.60
2018-04-25T12:55:39.088Z,1.60
2018-04-25T12:58:07.327Z,1.70
2018-04-25T13:00:35.551Z,1.60
2018-04-25T13:03:03.776Z,1.83
2018-04-25T13:05:32.774Z,1.70
2018-04-25T13:08:01.771Z,1.80
2018-04-25T13:10:30.779Z,1.80
2018-04-25T13:12:59.031Z,1.60
2018-04-25T13:15:28.031Z,1.43
2018-04-25T13:17:56.253Z,1.60
2018-04-25T13:20:24.499Z,1.73
2018-04-25T13:22:52.730Z,1.80
2018-04-25T13:25:21.423Z,1.80
2018-04-25T13:27:49.642Z,1.83
2018-04-25T13:30:17.888Z,2.00
2018-04-25T13:32:46.877Z,2.00
2018-04-25T13:35:15.891Z,2.13
2018-04-25T13:37:44.150Z,2.47
2018-04-25T13:40:12.363Z,2.17
2018-04-25T13:42:40.646Z,2.30
2018-04-25T13:45:08.891Z,2.80
2018-04-25T13:47:37.114Z,2.57
2018-04-25T13:50:05.350Z,2.60
2018-04-25T13:52:33.616Z,2.50
2018-04-25T13:55:01.937Z,2.73
2018-04-25T13:57:30.167Z,2.73
2018-04-25T13:59:58.405Z,2.90
2018-04-25T14:02:26.630Z,2.77
2018-04-25T14:04:54.863Z,2.70
2018-04-25T14:07:23.100Z,2.67
2018-04-25T14:09:51.334Z,2.37
2018-04-25T14:12:19.558Z,2.27
2018-04-25T14:14:48.567Z,2.37
2018-04-25T14:17:16.815Z,2.40
2018-04-25T14:19:45.050Z,2.47
2018-04-25T14:22:13.289Z,2.47
2018-04-25T14:24:42.330Z,2.40
2018-04-25T14:27:11.286Z,2.43
2018-04-25T14:29:39.511Z,2.60
2018-04-25T14:32:07.750Z,2.53
2018-04-25T14:34:36.036Z,2.90
2018-04-25T14:37:04.267Z,2.70
2018-04-25T14:39:32.498Z,2.93
2018-04-25T14:42:00.735Z,3.20
2018-04-25T14:44:29.377Z,2.90
2018-04-25T14:46:57.606Z,2.83
2018-04-25T14:49:25.837Z,3.97
2018-04-25T14:51:54.842Z,3.60
2018-04-25T14:54:23.070Z,3.90
2018-04-25T14:56:51.310Z,3.87
2018-04-25T14:59:19.538Z,3.80
2018-04-25T15:01:48.539Z,3.87
2018-04-25T15:04:17.543Z,4.00
2018-04-25T15:06:46.551Z,4.50
2018-04-25T15:09:14.771Z,4.87
2018-04-25T15:11:43.006Z,4.03
2018-04-25T15:14:11.239Z,5.10
2018-04-25T15:16:40.250Z,4.37
2018-04-25T15:19:08.464Z,4.03
2018-04-25T15:21:36.704Z,4.30
2018-04-25T15:24:04.938Z,5.00
2018-04-25T15:26:33.182Z,5.30
2018-04-25T15:29:01.407Z,4.37
2018-04-25T15:31:30.421Z,3.97
2018-04-25T15:33:58.643Z,4.40
2018-04-25T15:36:26.898Z,4.30
2018-04-25T15:38:55.245Z,4.30
2018-04-25T15:41:23.881Z,4.13
2018-04-25T15:43:52.292Z,3.50
2018-04-25T15:46:22.385Z,3.97
2018-04-25T15:48:50.622Z,4.33
2018-04-25T15:51:19.771Z,4.23
2018-04-25T15:53:48.860Z,4.57
2018-04-25T15:56:17.852Z,4.20
2018-04-25T15:58:46.855Z,4.40
2018-04-25T16:01:15.079Z,4.37
2018-04-25T16:03:43.333Z,4.33
2018-04-25T16:06:11.557Z,4.33
2018-04-25T16:08:40.564Z,4.77
2018-04-25T16:11:09.668Z,4.97
2018-04-25T16:13:37.841Z,5.13
2018-04-25T16:16:06.069Z,4.83
2018-04-25T16:18:34.311Z,4.60
2018-04-25T16:21:02.544Z,5.27
2018-04-25T16:23:31.535Z,5.17
2018-04-25T16:26:00.575Z,4.63
2018-04-25T16:28:28.910Z,4.90
2018-04-25T16:30:57.050Z,5.23
2018-04-25T16:33:25.344Z,5.13
2018-04-25T16:35:54.730Z,5.07
2018-04-25T16:38:22.950Z,4.90
2018-04-25T16:40:51.175Z,5.50
2018-04-25T16:43:19.563Z,5.20
2018-04-25T16:45:47.772Z,5.60
2018-04-25T16:48:16.000Z,5.23
2018-04-25T16:50:44.237Z,5.40
2018-04-25T16:53:12.463Z,5.53
2018-04-25T16:55:41.467Z,5.00
2018-04-25T16:58:09.724Z,5.53
2018-04-25T17:00:38.732Z,5.40
2018-04-25T17:03:07.722Z,5.90
2018-04-25T17:05:35.965Z,5.83
2018-04-25T17:08:04.717Z,5.07
2018-04-25T17:10:33.384Z,5.33
2018-04-25T17:13:01.667Z,5.40
2018-04-25T17:15:29.909Z,5.50
2018-04-25T17:17:58.898Z,5.00
2018-04-25T17:20:27.955Z,5.20
2018-04-25T17:22:56.238Z,4.70
2018-04-25T17:25:25.631Z,5.27
2018-04-25T17:27:55.117Z,3.63
2018-04-25T17:30:23.355Z,3.60
2018-04-25T17:32:51.579Z,3.73
2018-04-25T17:35:19.826Z,4.10
2018-04-25T17:37:48.052Z,4.40
2018-04-25T17:40:17.059Z,3.93
2018-04-25T17:42:46.062Z,4.00
2018-04-25T17:45:15.039Z,3.90
2018-04-25T17:47:44.045Z,3.40
2018-04-25T17:50:13.071Z,3.17
2018-04-25T17:52:41.294Z,2.93
2018-04-25T17:55:10.299Z,2.93
2018-04-25T17:57:38.654Z,2.78
2018-04-25T18:00:06.763Z,3.10
2018-04-25T18:02:35.012Z,3.33
2018-04-25T18:05:03.995Z,3.10
2018-04-25T18:07:33.128Z,3.53
2018-04-25T18:10:01.339Z,3.53
2018-04-25T18:12:29.575Z,3.50
2018-04-25T18:14:57.812Z,3.03
2018-04-25T18:17:26.858Z,3.70
2018-04-25T18:19:55.080Z,3.60
2018-04-25T18:22:24.117Z,3.63
2018-04-25T18:24:53.064Z,3.90
2018-04-25T18:27:22.067Z,3.70
2018-04-25T18:29:51.059Z,3.83
2018-04-25T18:32:20.055Z,3.60
2018-04-25T18:34:48.277Z,3.93
2018-04-25T18:37:16.528Z,3.90
2018-04-25T18:39:44.726Z,4.20
2018-04-25T18:42:13.103Z,4.00
2018-04-25T18:44:41.592Z,4.13
2018-04-25T18:47:10.754Z,4.87
2018-04-25T18:49:39.136Z,4.80
2018-04-25T18:52:07.681Z,4.60
2018-04-25T18:54:36.795Z,4.03
2018-04-25T18:57:05.039Z,4.10
2018-04-25T18:59:34.311Z,3.90
2018-04-25T19:02:03.114Z,4.07
2018-04-25T19:04:32.110Z,3.73
2018-04-25T19:07:01.117Z,3.70
2018-04-25T19:09:29.365Z,4.00
2018-04-25T19:11:57.914Z,3.60
2018-04-25T19:14:26.156Z,4.13
2018-04-25T19:16:54.388Z,4.13
2018-04-25T19:19:22.740Z,4.47
2018-04-25T19:21:50.989Z,4.43
2018-04-25T19:24:19.552Z,4.60
2018-04-25T19:26:48.748Z,4.80
2018-04-25T19:29:17.753Z,4.20
2018-04-25T19:31:45.967Z,4.57
2018-04-25T19:34:14.203Z,4.50
2018-04-25T19:36:42.888Z,4.53
2018-04-25T19:39:11.129Z,4.23
2018-04-25T19:41:40.111Z,4.90
2018-04-25T19:44:08.496Z,5.00
2018-04-25T19:46:36.743Z,5.00
2018-04-25T19:49:04.977Z,4.90
2018-04-25T19:51:33.195Z,5.40
2018-04-25T19:54:01.615Z,5.00
2018-04-25T19:56:29.858Z,5.27
2018-04-25T19:58:58.368Z,6.47
2018-04-25T20:01:26.655Z,5.70
2018-04-25T20:03:54.898Z,5.37
2018-04-25T20:06:23.883Z,5.43
2018-04-25T20:08:52.150Z,6.10
2018-04-25T20:11:20.387Z,5.87
2018-04-25T20:13:48.683Z,6.30
2018-04-25T20:16:17.617Z,6.23
2018-04-25T20:18:45.862Z,5.87
2018-04-25T20:21:14.087Z,6.10
2018-04-25T20:23:42.319Z,6.40
2018-04-25T20:26:11.304Z,6.03
2018-04-25T20:28:39.534Z,6.37
2018-04-25T20:31:07.751Z,6.80
2018-04-25T20:33:35.993Z,6.70
2018-04-25T20:36:04.208Z,6.67
2018-04-25T20:38:33.207Z,6.77
2018-04-25T20:41:02.198Z,6.80
2018-04-25T20:43:31.194Z,6.93
2018-04-25T20:45:59.412Z,6.73
2018-04-25T20:48:27.655Z,7.33
2018-04-25T20:50:55.880Z,7.17
2018-04-25T20:53:24.116Z,7.10
2018-04-25T20:55:52.382Z,6.93
2018-04-25T20:58:20.615Z,7.67
2018-04-25T21:00:48.835Z,7.13
2018-04-25T21:03:17.063Z,6.87
2018-04-25T21:05:45.316Z,7.47
2018-04-25T21:08:13.528Z,7.90
2018-04-25T21:10:42.520Z,8.37
2018-04-25T21:13:11.516Z,7.93
2018-04-25T21:15:39.741Z,8.23
2018-04-25T21:18:07.975Z,8.47
2018-04-25T21:20:36.197Z,8.20
2018-04-25T21:23:04.446Z,9.47
2018-04-25T21:25:32.679Z,9.83
2018-04-25T21:28:01.683Z,9.20
2018-04-25T21:30:29.922Z,9.70
2018-04-25T21:32:58.152Z,9.93
2018-04-25T21:35:26.392Z,10.17
2018-04-25T21:37:54.618Z,10.40
2018-04-25T21:40:22.852Z,9.63
2018-04-25T21:42:51.112Z,9.57
2018-04-25T21:45:20.103Z,9.60
2018-04-25T21:47:48.327Z,10.73
2018-04-25T21:50:16.569Z,10.90
2018-04-25T21:52:44.806Z,11.03
2018-04-25T21:55:13.178Z,11.20
2018-04-25T21:57:41.405Z,10.40
2018-04-25T22:00:09.650Z,11.50
2018-04-25T22:02:37.883Z,12.30
2018-04-25T22:05:06.123Z,11.60
2018-04-25T22:07:34.756Z,12.47
2018-04-25T22:10:02.966Z,13.67
2018-04-25T22:12:31.197Z,12.77
2018-04-25T22:14:59.439Z,12.43
2018-04-25T22:17:27.675Z,13.97
2018-04-25T22:19:55.920Z,14.50
2018-04-25T22:22:24.146Z,13.63
2018-04-25T22:24:52.390Z,13.90
2018-04-25T22:27:21.388Z,12.80
2018-04-25T22:29:49.627Z,13.40
2018-04-25T22:32:17.859Z,14.10
2018-04-25T22:34:46.112Z,13.63
2018-04-25T22:37:14.332Z,14.63
2018-04-25T22:39:42.574Z,14.20
2018-04-25T22:42:10.806Z,14.27
2018-04-25T22:44:39.046Z,14.50
2018-04-25T22:47:07.278Z,15.40
2018-04-25T22:49:35.518Z,15.10
2018-04-25T22:52:03.747Z,15.40
2018-04-25T22:54:31.991Z,13.87
2018-04-25T22:57:00.982Z,13.30
2018-04-25T22:59:29.996Z,11.77
2018-04-25T23:01:58.220Z,11.73
2018-04-25T23:04:26.462Z,10.80
2018-04-25T23:06:54.691Z,9.80
2018-04-25T23:09:23.691Z,9.93
2018-04-25T23:11:51.983Z,9.67
2018-04-25T23:14:20.222Z,8.47
2018-04-25T23:16:49.219Z,7.80
2018-04-25T23:19:18.215Z,7.33
2018-04-25T23:21:47.194Z,7.93
2018-04-25T23:24:16.203Z,7.20
2018-04-25T23:26:45.194Z,7.40
2018-04-25T23:29:14.190Z,7.00
2018-04-25T23:31:43.182Z,7.13
2018-04-25T23:34:12.167Z,6.90
2018-04-25T23:36:41.167Z,6.47
2018-04-25T23:39:09.387Z,6.83
2018-04-25T23:41:37.623Z,6.77
2018-04-25T23:44:06.414Z,6.57
2018-04-25T23:46:35.387Z,6.70
2018-04-25T23:49:04.371Z,6.80
2018-04-25T23:51:33.376Z,6.60
2018-04-25T23:54:02.359Z,6.80
2018-04-25T23:56:31.358Z,5.67
2018-04-25T23:58:59.575Z,6.53
